Boxgrove, United Kingdom
Current Conditions -  °F | °C
As of 1:50 PM on Monday 22 Dec 2014 (Local Time) from EGKA Reporting Station
Broken Clouds Broken Clouds  
Wind Chill: 54°   Ceiling: 1600
Heat Index: 54°   Visibility: 5mi
Dew Point: 50°   Wind: 21mph
Humidity: 88%   Direction: 240°WSW
Pressure: 30.12"   Gusts: 32mph
Location:  50.86°N, 0.71°W
Report Text: EGKA 221350Z 24018G28KT 8000 FEW009 BKN016 12/10 Q1020
Loading
Personal Weather Stations






























Interactive Weather Map New forecast layout! Learn more

10-Day Weather Forecast

Advertisements
Track Severe Weather on mobile